createdAt,value
2022-11-06T00:00:36.934Z,17.50
2022-11-06T00:03:05.883Z,15.57
2022-11-06T00:05:51.860Z,14.60
2022-11-06T00:08:30.258Z,14.23
2022-11-06T00:10:58.867Z,14.35
2022-11-06T00:13:27.429Z,13.07
2022-11-06T00:15:55.863Z,12.73
2022-11-06T00:18:27.280Z,13.13
2022-11-06T00:20:55.619Z,15.20
2022-11-06T00:23:23.960Z,13.75
2022-11-06T00:25:56.634Z,8.15
2022-11-06T00:28:25.123Z,11.57
2022-11-06T00:31:02.150Z,9.82
2022-11-06T00:33:30.437Z,9.10
2022-11-06T00:35:59.030Z,8.93
2022-11-06T00:38:27.801Z,13.77
2022-11-06T00:40:57.697Z,12.13
2022-11-06T00:43:26.008Z,21.58
2022-11-06T00:45:54.658Z,24.83
2022-11-06T00:48:22.915Z,26.85
2022-11-06T00:50:51.464Z,26.38
2022-11-06T00:53:19.817Z,29.13
2022-11-06T00:55:48.094Z,34.13
2022-11-06T00:58:18.112Z,26.83
2022-11-06T01:00:46.390Z,26.33
2022-11-06T01:03:14.694Z,13.60
2022-11-06T01:05:43.058Z,34.53
2022-11-06T01:08:11.677Z,24.75
2022-11-06T01:10:40.147Z,40.75
2022-11-06T01:13:08.449Z,26.10
2022-11-06T01:15:38.558Z,25.90
2022-11-06T01:18:06.855Z,24.52
2022-11-06T01:20:35.308Z,53.80
2022-11-06T01:23:03.673Z,58.08
2022-11-06T01:25:32.226Z,45.08
2022-11-06T01:28:00.482Z,67.85
2022-11-06T01:30:28.740Z,117.55
2022-11-06T01:32:58.349Z,86.18
2022-11-06T01:35:26.607Z,75.60
2022-11-06T01:37:54.893Z,48.80
2022-11-06T01:40:23.124Z,56.95
2022-11-06T01:42:51.402Z,74.72
2022-11-06T01:45:28.415Z,83.47
2022-11-06T01:47:58.354Z,25.90
2022-11-06T01:50:26.941Z,22.00
2022-11-06T01:52:55.225Z,23.35
2022-11-06T01:55:26.643Z,33.20
2022-11-06T01:57:56.481Z,37.17
2022-11-06T02:00:26.191Z,19.52
2022-11-06T02:02:54.570Z,15.60
2022-11-06T02:05:24.295Z,17.85
2022-11-06T02:07:53.268Z,17.00
2022-11-06T02:10:21.519Z,21.73
2022-11-06T02:12:58.077Z,16.23
2022-11-06T02:15:32.795Z,9.25
2022-11-06T02:18:11.552Z,15.00
2022-11-06T02:20:48.040Z,23.92
2022-11-06T02:23:39.603Z,21.52
2022-11-06T02:26:20.856Z,19.67
2022-11-06T02:28:52.953Z,37.60
2022-11-06T02:31:26.112Z,20.75
2022-11-06T02:33:57.016Z,20.00
2022-11-06T02:36:30.124Z,22.27
2022-11-06T02:39:00.270Z,22.10
2022-11-06T02:41:33.217Z,30.52
2022-11-06T02:44:04.831Z,29.00
2022-11-06T02:46:35.488Z,37.47
2022-11-06T02:51:34.472Z,25.80
2022-11-06T02:54:03.951Z,19.40
2022-11-06T02:56:37.031Z,35.13
2022-11-06T02:59:09.956Z,70.35
2022-11-06T03:01:40.976Z,36.13
2022-11-06T03:04:13.290Z,75.55
2022-11-06T03:06:44.969Z,49.22
2022-11-06T03:09:16.010Z,35.17
2022-11-06T03:11:44.385Z,45.03
2022-11-06T03:14:19.751Z,43.08
2022-11-06T03:16:54.558Z,29.42
2022-11-06T03:19:27.794Z,16.42
2022-11-06T03:22:02.171Z,25.60
2022-11-06T03:24:33.343Z,14.55
2022-11-06T03:27:07.247Z,7.63
2022-11-06T03:29:40.487Z,12.20
2022-11-06T03:32:16.811Z,16.00
2022-11-06T03:34:51.649Z,15.70
2022-11-06T03:37:34.421Z,22.95
2022-11-06T03:40:05.153Z,34.42
2022-11-06T03:42:33.573Z,33.90
2022-11-06T03:45:05.335Z,36.67
2022-11-06T03:47:35.471Z,25.98
2022-11-06T03:50:08.101Z,14.77
2022-11-06T03:52:42.536Z,17.00
2022-11-06T03:55:16.168Z,12.73
2022-11-06T03:57:46.404Z,20.95
2022-11-06T04:00:17.143Z,34.30
2022-11-06T04:05:17.431Z,17.27
2022-11-06T04:08:08.565Z,12.85
2022-11-06T04:11:05.937Z,11.13
2022-11-06T04:13:53.170Z,10.73
2022-11-06T04:16:23.697Z,25.08
2022-11-06T04:18:52.087Z,14.70
2022-11-06T04:21:28.125Z,21.02
2022-11-06T04:24:22.204Z,18.23
2022-11-06T04:26:59.834Z,23.15
2022-11-06T04:29:36.138Z,20.58
2022-11-06T04:32:11.562Z,25.45
2022-11-06T04:34:44.891Z,21.95
2022-11-06T04:37:18.316Z,22.08
2022-11-06T04:39:53.413Z,9.38
2022-11-06T04:42:27.259Z,8.55
2022-11-06T04:44:59.968Z,15.70
2022-11-06T04:47:29.835Z,11.63
2022-11-06T04:50:00.312Z,29.25
2022-11-06T04:52:29.910Z,24.77
2022-11-06T04:54:59.456Z,29.15
2022-11-06T04:57:28.089Z,26.80
2022-11-06T04:59:56.988Z,44.35
2022-11-06T05:02:25.701Z,30.67
2022-11-06T05:04:55.429Z,33.95
2022-11-06T05:07:24.279Z,52.93
2022-11-06T05:09:52.585Z,43.75
2022-11-06T05:12:20.904Z,30.90
2022-11-06T05:14:49.287Z,25.35
2022-11-06T05:17:17.604Z,22.75
2022-11-06T05:19:45.896Z,21.95
2022-11-06T05:22:33.210Z,22.55
2022-11-06T05:25:01.597Z,23.25
2022-11-06T05:27:30.003Z,20.60
2022-11-06T05:29:58.305Z,15.38
2022-11-06T05:32:26.652Z,19.77
2022-11-06T05:34:54.987Z,29.60
2022-11-06T05:37:24.788Z,43.90
2022-11-06T05:39:53.095Z,65.20
2022-11-06T05:42:21.553Z,48.40
2022-11-06T05:44:49.852Z,36.78
2022-11-06T05:47:18.130Z,55.22
2022-11-06T05:49:46.411Z,48.63
2022-11-06T05:52:14.732Z,56.03
2022-11-06T05:54:44.413Z,64.18
2022-11-06T05:57:12.735Z,51.67
2022-11-06T05:59:41.026Z,77.00
2022-11-06T06:02:09.554Z,67.18
2022-11-06T06:04:37.959Z,70.57
2022-11-06T06:07:06.275Z,49.20
2022-11-06T06:09:34.594Z,57.75
2022-11-06T06:12:04.705Z,60.38
2022-11-06T06:14:32.958Z,65.50
2022-11-06T06:17:01.232Z,58.95
2022-11-06T06:19:29.491Z,26.08
2022-11-06T06:21:57.755Z,35.08
2022-11-06T06:24:26.189Z,24.90
2022-11-06T06:26:54.492Z,26.98
2022-11-06T06:29:24.163Z,14.02
2022-11-06T06:31:52.509Z,12.20
2022-11-06T06:34:20.908Z,11.43
2022-11-06T06:36:50.650Z,12.80
2022-11-06T06:39:20.437Z,18.47
2022-11-06T06:41:49.174Z,16.87
2022-11-06T06:44:17.924Z,26.90
2022-11-06T06:46:47.587Z,30.98
2022-11-06T06:49:15.959Z,31.40
2022-11-06T06:51:44.232Z,41.78
2022-11-06T06:54:12.547Z,56.38
2022-11-06T06:56:40.841Z,33.53
2022-11-06T06:59:09.665Z,62.17
2022-11-06T07:01:38.142Z,35.80
2022-11-06T07:04:08.095Z,36.80
2022-11-06T07:06:36.370Z,45.40
2022-11-06T07:09:04.938Z,40.55
2022-11-06T07:11:33.207Z,56.65
2022-11-06T07:14:01.690Z,70.30
2022-11-06T07:16:32.446Z,69.40
2022-11-06T07:19:00.707Z,73.32
2022-11-06T07:21:30.329Z,93.75
2022-11-06T07:23:58.791Z,114.60
2022-11-06T07:26:27.138Z,84.70
2022-11-06T07:28:55.419Z,69.05
2022-11-06T07:31:24.198Z,67.13
2022-11-06T07:33:52.491Z,83.43
2022-11-06T07:36:22.119Z,103.80
2022-11-06T07:38:51.782Z,92.43
2022-11-06T07:41:21.087Z,117.70
2022-11-06T07:43:50.396Z,100.25
2022-11-06T07:46:18.710Z,117.90
2022-11-06T07:48:47.067Z,64.68
2022-11-06T07:51:15.356Z,41.13
2022-11-06T07:53:43.622Z,41.20
2022-11-06T07:56:13.445Z,62.65
2022-11-06T07:58:41.969Z,31.63
2022-11-06T08:01:18.623Z,29.17
2022-11-06T08:03:47.433Z,44.00
2022-11-06T08:06:15.771Z,26.88
2022-11-06T08:08:44.148Z,33.25
2022-11-06T08:11:14.374Z,30.35
2022-11-06T08:13:44.078Z,32.67
2022-11-06T08:16:14.305Z,31.90
2022-11-06T08:18:43.083Z,31.65
2022-11-06T08:21:11.432Z,26.70
2022-11-06T08:23:39.719Z,30.27
2022-11-06T08:26:08.311Z,28.52
2022-11-06T08:28:38.010Z,28.60
2022-11-06T08:31:06.761Z,27.77
2022-11-06T08:33:35.633Z,30.17
2022-11-06T08:36:05.234Z,26.50
2022-11-06T08:38:33.707Z,25.65
2022-11-06T08:41:05.863Z,31.48
2022-11-06T08:43:34.373Z,31.48
2022-11-06T08:46:04.667Z,31.10
2022-11-06T08:48:34.543Z,25.60
2022-11-06T08:51:02.932Z,25.90
2022-11-06T08:53:31.361Z,26.15
2022-11-06T08:55:59.909Z,27.15
2022-11-06T08:58:28.214Z,23.85
2022-11-06T09:00:56.551Z,25.98
2022-11-06T09:03:26.333Z,25.65
2022-11-06T09:05:54.637Z,23.47
2022-11-06T09:08:24.214Z,25.77
2022-11-06T09:10:58.175Z,22.80
2022-11-06T09:13:27.414Z,23.00
2022-11-06T09:15:55.793Z,23.95
2022-11-06T09:18:24.111Z,22.52
2022-11-06T09:20:57.007Z,26.25
2022-11-06T09:23:25.690Z,22.60
2022-11-06T09:25:54.172Z,23.80
2022-11-06T09:28:22.486Z,26.20
2022-11-06T09:30:50.899Z,24.13
2022-11-06T09:33:19.651Z,23.13
2022-11-06T09:35:48.333Z,26.27
2022-11-06T09:38:19.110Z,25.08
2022-11-06T09:40:50.748Z,22.48
2022-11-06T09:44:02.866Z,23.30
2022-11-06T09:46:24.131Z,19.25
2022-11-06T09:48:56.688Z,19.38
2022-11-06T09:51:32.780Z,21.27
2022-11-06T09:54:08.543Z,20.42
2022-11-06T09:56:39.960Z,22.65
2022-11-06T09:59:13.149Z,21.63
2022-11-06T10:01:44.085Z,24.85
2022-11-06T10:04:33.632Z,26.52
2022-11-06T10:07:01.919Z,21.38
2022-11-06T10:09:32.138Z,22.23
2022-11-06T10:12:05.988Z,20.48
2022-11-06T10:14:45.332Z,24.08
2022-11-06T10:17:21.240Z,22.90
2022-11-06T10:19:51.436Z,20.48
2022-11-06T10:22:22.723Z,19.35
2022-11-06T10:25:00.061Z,17.45
2022-11-06T10:27:29.809Z,17.80
2022-11-06T10:30:11.009Z,16.57
2022-11-06T10:33:03.164Z,16.38
2022-11-06T10:35:35.719Z,16.02
2022-11-06T10:38:07.552Z,14.32
2022-11-06T10:40:37.890Z,12.95
2022-11-06T10:43:15.776Z,13.23
2022-11-06T10:45:48.558Z,12.55
2022-11-06T10:48:28.982Z,11.18
2022-11-06T10:51:09.713Z,8.70
2022-11-06T10:53:47.207Z,6.97
2022-11-06T10:56:47.970Z,8.90
2022-11-06T11:01:44.586Z,6.63
2022-11-06T11:04:13.050Z,10.27
2022-11-06T11:06:41.594Z,7.60
2022-11-06T11:09:30.338Z,6.63
2022-11-06T11:12:00.673Z,9.27
2022-11-06T11:14:30.344Z,7.70
2022-11-06T11:17:01.455Z,6.00
2022-11-06T11:19:37.371Z,6.43
2022-11-06T11:22:18.122Z,8.23
2022-11-06T11:25:00.863Z,8.38
2022-11-06T11:27:31.146Z,7.82
2022-11-06T11:29:59.622Z,7.45
2022-11-06T11:32:30.442Z,8.18
2022-11-06T11:34:59.427Z,5.95
2022-11-06T11:37:29.477Z,8.75
2022-11-06T11:40:21.875Z,9.90
2022-11-06T11:42:51.603Z,11.55
2022-11-06T11:45:21.281Z,12.03
2022-11-06T11:47:51.375Z,10.70
2022-11-06T11:50:31.262Z,10.13
2022-11-06T11:53:08.818Z,7.70
2022-11-06T11:55:42.092Z,10.02
2022-11-06T11:58:21.297Z,7.00
2022-11-06T12:00:54.151Z,8.70
2022-11-06T12:03:24.064Z,8.55
2022-11-06T12:05:53.471Z,7.60
2022-11-06T12:08:25.465Z,6.45
2022-11-06T12:10:53.781Z,7.40
2022-11-06T12:13:24.804Z,5.72
2022-11-06T12:15:56.707Z,8.07
2022-11-06T12:18:28.098Z,8.68
2022-11-06T12:20:59.192Z,7.43
2022-11-06T12:23:30.923Z,8.05
2022-11-06T12:26:03.083Z,9.23
2022-11-06T12:28:34.050Z,9.48
2022-11-06T12:31:05.894Z,10.93
2022-11-06T12:34:04.548Z,10.85
2022-11-06T12:36:27.181Z,9.55
2022-11-06T12:38:58.247Z,9.95
2022-11-06T12:41:28.221Z,10.30
2022-11-06T12:43:58.485Z,9.75
2022-11-06T12:46:37.187Z,14.18
2022-11-06T12:49:23.398Z,11.60
2022-11-06T12:52:00.733Z,10.10
2022-11-06T12:54:40.614Z,13.95
2022-11-06T12:57:16.937Z,11.65
2022-11-06T12:59:56.170Z,9.20
2022-11-06T13:02:33.127Z,10.23
2022-11-06T13:05:03.449Z,10.25
2022-11-06T13:07:39.812Z,7.90
2022-11-06T13:10:21.256Z,7.75
2022-11-06T13:12:59.727Z,8.10
2022-11-06T13:15:33.651Z,8.23
2022-11-06T13:18:08.802Z,8.73
2022-11-06T13:20:43.385Z,8.50
2022-11-06T13:23:14.621Z,8.52
2022-11-06T13:25:50.506Z,8.43
2022-11-06T13:28:31.320Z,8.02
2022-11-06T13:31:03.756Z,8.23
2022-11-06T13:33:35.966Z,6.78
2022-11-06T13:36:04.600Z,6.95
2022-11-06T13:38:37.447Z,7.53
2022-11-06T13:41:12.905Z,6.00
2022-11-06T13:43:44.997Z,7.43
2022-11-06T13:46:23.505Z,7.97
2022-11-06T13:48:57.269Z,9.90
2022-11-06T13:51:33.913Z,10.15
2022-11-06T13:54:04.691Z,9.68
2022-11-06T13:57:00.745Z,10.32
2022-11-06T13:59:53.506Z,9.55
2022-11-06T14:02:39.722Z,9.75
2022-11-06T14:05:24.272Z,9.27
2022-11-06T14:07:53.033Z,8.70
2022-11-06T14:10:23.553Z,7.78
2022-11-06T14:12:52.208Z,9.35
2022-11-06T14:15:27.151Z,10.05
2022-11-06T14:17:59.257Z,10.63
2022-11-06T14:20:30.332Z,11.05
2022-11-06T14:23:32.103Z,12.77
2022-11-06T14:26:01.463Z,11.25
2022-11-06T14:28:31.928Z,10.88
2022-11-06T14:31:21.552Z,9.57
2022-11-06T14:34:05.200Z,11.65
2022-11-06T14:36:36.246Z,10.02
2022-11-06T14:39:05.362Z,12.18
2022-11-06T14:42:06.193Z,13.00
2022-11-06T14:47:04.880Z,12.18
2022-11-06T14:49:42.078Z,12.13
2022-11-06T14:52:13.095Z,20.08
2022-11-06T14:54:42.651Z,40.60
2022-11-06T14:57:16.506Z,76.13
2022-11-06T14:59:44.866Z,18.83
2022-11-06T15:02:19.687Z,21.77
2022-11-06T15:04:51.366Z,13.90
2022-11-06T15:08:08.596Z,12.20
2022-11-06T15:10:54.271Z,27.20
2022-11-06T15:13:31.232Z,16.50
2022-11-06T15:16:13.503Z,12.52
2022-11-06T15:18:44.260Z,14.32
2022-11-06T15:21:22.622Z,14.43
2022-11-06T15:24:02.905Z,11.77
2022-11-06T15:26:35.323Z,12.23
2022-11-06T15:29:12.853Z,48.05
2022-11-06T15:31:41.982Z,32.45
2022-11-06T15:34:15.986Z,15.93
2022-11-06T15:36:49.246Z,22.90
2022-11-06T15:39:34.096Z,15.98
2022-11-06T15:42:02.424Z,13.85
2022-11-06T15:44:30.644Z,12.02
2022-11-06T15:47:00.155Z,13.02
2022-11-06T15:49:28.439Z,13.57
2022-11-06T15:51:59.392Z,13.30
2022-11-06T15:54:36.116Z,14.13
2022-11-06T15:57:08.748Z,11.18
2022-11-06T15:59:37.055Z,15.45
2022-11-06T16:02:06.240Z,27.35
2022-11-06T16:04:34.835Z,15.55
2022-11-06T16:07:05.713Z,24.75
2022-11-06T16:09:34.343Z,19.20
2022-11-06T16:12:02.868Z,24.27
2022-11-06T16:14:31.138Z,29.55
2022-11-06T16:17:09.937Z,26.75
2022-11-06T16:19:39.492Z,19.50
2022-11-06T16:22:10.923Z,18.30
2022-11-06T16:24:44.554Z,15.55
2022-11-06T16:27:13.170Z,14.73
2022-11-06T16:29:47.382Z,16.55
2022-11-06T16:32:17.506Z,19.42
2022-11-06T16:34:47.124Z,20.30
2022-11-06T16:37:40.729Z,16.20
2022-11-06T16:40:53.637Z,22.23
2022-11-06T16:43:22.692Z,24.48
2022-11-06T16:46:02.748Z,20.02
2022-11-06T16:48:34.661Z,22.17
2022-11-06T16:51:08.254Z,27.67
2022-11-06T16:53:52.878Z,25.60
2022-11-06T16:56:25.341Z,26.08
2022-11-06T16:59:01.142Z,24.85
2022-11-06T17:01:30.760Z,28.83
2022-11-06T17:04:01.085Z,26.20
2022-11-06T17:06:30.989Z,20.55
2022-11-06T17:09:08.795Z,21.75
2022-11-06T17:11:38.840Z,16.20
2022-11-06T17:14:17.289Z,17.25
2022-11-06T17:16:46.982Z,17.52
2022-11-06T17:19:15.317Z,18.80
2022-11-06T17:21:43.604Z,13.40
2022-11-06T17:27:01.575Z,26.38
2022-11-06T17:29:29.868Z,40.67
2022-11-06T17:31:58.170Z,27.92
2022-11-06T17:34:26.492Z,30.17
2022-11-06T17:36:54.803Z,33.58
2022-11-06T17:39:24.454Z,16.10
2022-11-06T17:41:53.561Z,21.10
2022-11-06T17:44:22.402Z,12.50
2022-11-06T17:46:50.958Z,12.80
2022-11-06T17:49:19.242Z,14.20
2022-11-06T17:51:53.315Z,11.13
2022-11-06T17:54:25.389Z,12.40
2022-11-06T17:56:54.788Z,16.25
2022-11-06T17:59:23.948Z,14.48
2022-11-06T18:01:52.935Z,13.52
2022-11-06T18:04:23.418Z,13.90
2022-11-06T18:06:53.527Z,19.30
2022-11-06T18:09:24.355Z,14.10
2022-11-06T18:11:53.812Z,15.05
2022-11-06T18:14:23.617Z,15.60
2022-11-06T18:16:52.351Z,14.88
2022-11-06T18:19:23.364Z,13.68
2022-11-06T18:21:51.849Z,12.95
2022-11-06T18:24:20.179Z,10.38
2022-11-06T18:26:49.982Z,13.18
2022-11-06T18:29:18.656Z,11.90
2022-11-06T18:31:46.962Z,11.20
2022-11-06T18:34:20.240Z,10.75
2022-11-06T18:36:50.116Z,8.38
2022-11-06T18:39:18.685Z,10.60
2022-11-06T18:41:47.011Z,21.58
2022-11-06T18:44:17.963Z,18.23
2022-11-06T18:46:46.639Z,27.73
2022-11-06T18:49:15.777Z,32.00
2022-11-06T18:51:44.284Z,34.28
2022-11-06T18:54:13.324Z,28.27
2022-11-06T18:56:41.780Z,34.35
2022-11-06T18:59:14.584Z,36.58
2022-11-06T19:01:44.386Z,41.17
2022-11-06T19:04:12.863Z,29.25
2022-11-06T19:06:41.379Z,24.27
2022-11-06T19:09:10.973Z,18.20
2022-11-06T19:11:39.626Z,17.25
2022-11-06T19:14:08.142Z,17.80
2022-11-06T19:16:36.528Z,13.02
2022-11-06T19:19:07.466Z,14.77
2022-11-06T19:21:35.876Z,13.15
2022-11-06T19:24:05.849Z,13.18
2022-11-06T19:26:35.747Z,15.75
2022-11-06T19:29:05.357Z,13.15
2022-11-06T19:31:34.226Z,12.65
2022-11-06T19:34:03.642Z,12.57
2022-11-06T19:36:33.421Z,12.85
2022-11-06T19:39:02.112Z,12.07
2022-11-06T19:41:30.761Z,13.82
2022-11-06T19:43:59.077Z,13.93
2022-11-06T19:46:34.006Z,16.90
2022-11-06T19:49:04.193Z,13.20
2022-11-06T19:51:34.897Z,14.55
2022-11-06T19:56:31.223Z,18.08
2022-11-06T19:59:00.014Z,16.50
2022-11-06T20:01:28.380Z,15.98
2022-11-06T20:03:56.818Z,17.20
2022-11-06T20:06:27.380Z,14.30
2022-11-06T20:11:25.113Z,13.68
2022-11-06T20:13:53.442Z,15.98
2022-11-06T20:16:22.068Z,15.05
2022-11-06T20:18:54.010Z,15.13
2022-11-06T20:21:23.191Z,17.70
2022-11-06T20:23:51.496Z,16.10
2022-11-06T20:26:21.682Z,14.98
2022-11-06T20:28:51.390Z,15.98
2022-11-06T20:31:20.425Z,13.40
2022-11-06T20:33:49.607Z,13.40
2022-11-06T20:36:20.486Z,13.15
2022-11-06T20:38:48.773Z,12.88
2022-11-06T20:41:17.869Z,13.23
2022-11-06T20:43:48.215Z,13.10
2022-11-06T20:46:17.588Z,11.68
2022-11-06T20:48:46.521Z,12.95
2022-11-06T20:51:17.513Z,12.57
2022-11-06T20:53:46.379Z,12.13
2022-11-06T20:56:17.105Z,11.85
2022-11-06T20:58:46.921Z,12.15
2022-11-06T21:01:19.731Z,12.93
2022-11-06T21:03:49.558Z,11.73
2022-11-06T21:06:18.740Z,13.07
2022-11-06T21:08:47.668Z,13.30
2022-11-06T21:11:18.107Z,11.57
2022-11-06T21:13:49.422Z,13.30
2022-11-06T21:16:19.638Z,10.20
2022-11-06T21:18:48.291Z,13.73
2022-11-06T21:21:18.305Z,15.40
2022-11-06T21:23:46.571Z,12.15
2022-11-06T21:26:16.447Z,13.38
2022-11-06T21:28:45.167Z,12.15
2022-11-06T21:31:17.514Z,10.38
2022-11-06T21:33:47.390Z,10.75
2022-11-06T21:36:17.431Z,11.32
2022-11-06T21:38:45.748Z,11.95
2022-11-06T21:41:16.279Z,12.18
2022-11-06T21:43:44.916Z,8.68
2022-11-06T21:46:15.012Z,11.35
2022-11-06T21:48:47.711Z,9.38
2022-11-06T21:51:17.655Z,10.82
2022-11-06T21:54:03.529Z,8.75
2022-11-06T21:56:31.833Z,10.50
2022-11-06T21:59:01.866Z,8.70
2022-11-06T22:01:32.443Z,9.18
2022-11-06T22:04:00.913Z,10.35
2022-11-06T22:06:29.883Z,10.18
2022-11-06T22:08:59.294Z,9.05
2022-11-06T22:11:29.096Z,7.78
2022-11-06T22:13:58.955Z,8.65
2022-11-06T22:16:28.567Z,9.25
2022-11-06T22:18:59.332Z,8.70
2022-11-06T22:21:29.474Z,7.22
2022-11-06T22:23:58.333Z,9.13
2022-11-06T22:26:29.073Z,9.18
2022-11-06T22:28:58.694Z,8.73
2022-11-06T22:31:27.753Z,7.63
2022-11-06T22:33:56.173Z,7.93
2022-11-06T22:36:26.245Z,9.30
2022-11-06T22:38:54.590Z,8.93
2022-11-06T22:41:24.836Z,8.23
2022-11-06T22:43:53.550Z,8.35
2022-11-06T22:46:23.139Z,6.93
2022-11-06T22:48:52.769Z,6.10
2022-11-06T22:51:23.055Z,6.20
2022-11-06T22:56:38.722Z,6.97
2022-11-06T22:59:08.822Z,5.35
2022-11-06T23:01:41.924Z,4.05
2022-11-06T23:04:14.877Z,3.85
2022-11-06T23:06:43.858Z,4.03
2022-11-06T23:09:14.042Z,3.70
2022-11-06T23:11:42.336Z,3.45
2022-11-06T23:14:10.679Z,2.45
2022-11-06T23:16:56.537Z,2.40
2022-11-06T23:19:25.213Z,3.10
2022-11-06T23:22:13.633Z,3.22
2022-11-06T23:24:43.635Z,2.45
2022-11-06T23:27:12.432Z,2.88
2022-11-06T23:29:41.047Z,2.75
2022-11-06T23:32:09.391Z,4.05
2022-11-06T23:34:37.799Z,1.88
2022-11-06T23:37:06.244Z,2.10
2022-11-06T23:39:34.544Z,1.98
2022-11-06T23:42:04.248Z,2.50
2022-11-06T23:44:50.217Z,3.33
2022-11-06T23:47:18.766Z,2.72
2022-11-06T23:49:47.497Z,2.85
2022-11-06T23:52:15.834Z,3.15
2022-11-06T23:54:44.073Z,2.17
2022-11-06T23:57:14.162Z,1.75
2022-11-06T23:59:42.460Z,4.13
